sensor_id;sensor_type;location;lat;lon;timestamp;P1;durP1;ratioP1;P2;durP2;ratioP2
50717;SDS011;60557;51.350;12.410;2023-04-19T00:02:11;7.72;;;3.78;;
50717;SDS011;60557;51.350;12.410;2023-04-19T00:04:40;6.57;;;4.47;;
50717;SDS011;60557;51.350;12.410;2023-04-19T00:07:08;8.43;;;4.20;;
50717;SDS011;60557;51.350;12.410;2023-04-19T00:09:35;6.25;;;3.90;;
50717;SDS011;60557;51.350;12.410;2023-04-19T00:12:03;7.82;;;3.90;;
50717;SDS011;60557;51.350;12.410;2023-04-19T00:14:30;5.10;;;3.97;;
50717;SDS011;60557;51.350;12.410;2023-04-19T00:16:56;8.63;;;3.90;;
50717;SDS011;60557;51.350;12.410;2023-04-19T00:19:22;6.65;;;4.10;;
50717;SDS011;60557;51.350;12.410;2023-04-19T00:21:48;15.68;;;10.77;;
50717;SDS011;60557;51.350;12.410;2023-04-19T00:24:14;30.48;;;18.35;;
50717;SDS011;60557;51.350;12.410;2023-04-19T00:26:40;10.40;;;5.18;;
50717;SDS011;60557;51.350;12.410;2023-04-19T00:29:09;15.45;;;4.25;;
50717;SDS011;60557;51.350;12.410;2023-04-19T00:31:35;9.52;;;3.70;;
50717;SDS011;60557;51.350;12.410;2023-04-19T00:34:03;6.55;;;4.20;;
50717;SDS011;60557;51.350;12.410;2023-04-19T00:36:30;9.90;;;3.90;;
50717;SDS011;60557;51.350;12.410;2023-04-19T00:38:56;9.35;;;4.03;;
50717;SDS011;60557;51.350;12.410;2023-04-19T00:41:22;7.35;;;4.13;;
50717;SDS011;60557;51.350;12.410;2023-04-19T00:43:48;8.98;;;3.70;;
50717;SDS011;60557;51.350;12.410;2023-04-19T00:46:14;8.10;;;4.47;;
50717;SDS011;60557;51.350;12.410;2023-04-19T00:48:43;8.77;;;4.82;;
50717;SDS011;60557;51.350;12.410;2023-04-19T00:51:09;8.93;;;5.68;;
50717;SDS011;60557;51.350;12.410;2023-04-19T00:53:35;8.45;;;4.88;;
50717;SDS011;60557;51.350;12.410;2023-04-19T00:56:05;8.52;;;5.22;;
50717;SDS011;60557;51.350;12.410;2023-04-19T00:58:31;8.75;;;5.28;;
50717;SDS011;60557;51.350;12.410;2023-04-19T01:00:57;12.75;;;4.90;;
50717;SDS011;60557;51.350;12.410;2023-04-19T01:03:24;8.25;;;5.13;;
50717;SDS011;60557;51.350;12.410;2023-04-19T01:05:54;9.38;;;6.15;;
50717;SDS011;60557;51.350;12.410;2023-04-19T01:08:20;8.45;;;4.72;;
50717;SDS011;60557;51.350;12.410;2023-04-19T01:10:46;7.40;;;5.07;;
50717;SDS011;60557;51.350;12.410;2023-04-19T01:13:12;12.23;;;5.18;;
50717;SDS011;60557;51.350;12.410;2023-04-19T01:15:38;7.03;;;4.68;;
50717;SDS011;60557;51.350;12.410;2023-04-19T01:18:07;8.05;;;5.13;;
50717;SDS011;60557;51.350;12.410;2023-04-19T01:20:35;9.20;;;4.85;;
50717;SDS011;60557;51.350;12.410;2023-04-19T01:23:01;7.65;;;5.07;;
50717;SDS011;60557;51.350;12.410;2023-04-19T01:25:27;8.95;;;5.50;;
50717;SDS011;60557;51.350;12.410;2023-04-19T01:27:53;9.25;;;5.50;;
50717;SDS011;60557;51.350;12.410;2023-04-19T01:30:22;12.50;;;6.28;;
50717;SDS011;60557;51.350;12.410;2023-04-19T01:32:48;8.43;;;5.07;;
50717;SDS011;60557;51.350;12.410;2023-04-19T01:35:14;7.78;;;5.43;;
50717;SDS011;60557;51.350;12.410;2023-04-19T01:37:40;11.50;;;5.95;;
50717;SDS011;60557;51.350;12.410;2023-04-19T01:40:06;11.25;;;5.32;;
50717;SDS011;60557;51.350;12.410;2023-04-19T01:42:33;14.93;;;9.43;;
50717;SDS011;60557;51.350;12.410;2023-04-19T01:44:59;42.03;;;27.65;;
50717;SDS011;60557;51.350;12.410;2023-04-19T01:47:25;12.38;;;6.80;;
50717;SDS011;60557;51.350;12.410;2023-04-19T01:49:51;7.80;;;5.25;;
50717;SDS011;60557;51.350;12.410;2023-04-19T01:52:20;22.58;;;14.38;;
50717;SDS011;60557;51.350;12.410;2023-04-19T01:54:46;16.55;;;9.32;;
50717;SDS011;60557;51.350;12.410;2023-04-19T01:57:12;20.23;;;13.27;;
50717;SDS011;60557;51.350;12.410;2023-04-19T01:59:40;10.63;;;5.60;;
50717;SDS011;60557;51.350;12.410;2023-04-19T02:02:06;8.98;;;5.63;;
50717;SDS011;60557;51.350;12.410;2023-04-19T02:04:35;10.77;;;5.25;;
50717;SDS011;60557;51.350;12.410;2023-04-19T02:07:01;8.32;;;5.18;;
50717;SDS011;60557;51.350;12.410;2023-04-19T02:09:27;9.45;;;5.60;;
50717;SDS011;60557;51.350;12.410;2023-04-19T02:11:53;9.15;;;5.70;;
50717;SDS011;60557;51.350;12.410;2023-04-19T02:14:21;9.32;;;5.22;;
50717;SDS011;60557;51.350;12.410;2023-04-19T02:16:50;7.65;;;5.55;;
50717;SDS011;60557;51.350;12.410;2023-04-19T02:19:16;10.98;;;5.43;;
50717;SDS011;60557;51.350;12.410;2023-04-19T02:21:42;10.50;;;5.68;;
50717;SDS011;60557;51.350;12.410;2023-04-19T02:24:08;11.60;;;6.93;;
50717;SDS011;60557;51.350;12.410;2023-04-19T02:26:38;7.60;;;4.80;;
50717;SDS011;60557;51.350;12.410;2023-04-19T02:29:05;8.65;;;5.35;;
50717;SDS011;60557;51.350;12.410;2023-04-19T02:31:31;11.65;;;5.22;;
50717;SDS011;60557;51.350;12.410;2023-04-19T02:33:57;8.82;;;5.80;;
50717;SDS011;60557;51.350;12.410;2023-04-19T02:36:25;8.45;;;5.78;;
50717;SDS011;60557;51.350;12.410;2023-04-19T02:38:51;9.65;;;5.90;;
50717;SDS011;60557;51.350;12.410;2023-04-19T02:41:18;10.68;;;6.50;;
50717;SDS011;60557;51.350;12.410;2023-04-19T02:43:44;11.65;;;7.13;;
50717;SDS011;60557;51.350;12.410;2023-04-19T02:46:12;12.70;;;6.47;;
50717;SDS011;60557;51.350;12.410;2023-04-19T02:48:40;15.27;;;6.80;;
50717;SDS011;60557;51.350;12.410;2023-04-19T02:51:07;12.88;;;6.45;;
50717;SDS011;60557;51.350;12.410;2023-04-19T02:53:33;13.27;;;7.50;;
50717;SDS011;60557;51.350;12.410;2023-04-19T02:55:59;10.02;;;6.65;;
50717;SDS011;60557;51.350;12.410;2023-04-19T02:58:25;9.38;;;5.93;;
50717;SDS011;60557;51.350;12.410;2023-04-19T03:00:51;11.52;;;6.55;;
50717;SDS011;60557;51.350;12.410;2023-04-19T03:03:20;13.05;;;7.50;;
50717;SDS011;60557;51.350;12.410;2023-04-19T03:05:46;12.77;;;7.63;;
50717;SDS011;60557;51.350;12.410;2023-04-19T03:08:12;10.00;;;6.60;;
50717;SDS011;60557;51.350;12.410;2023-04-19T03:10:38;9.98;;;6.45;;
50717;SDS011;60557;51.350;12.410;2023-04-19T03:13:04;11.73;;;6.68;;
50717;SDS011;60557;51.350;12.410;2023-04-19T03:15:30;14.15;;;7.68;;
50717;SDS011;60557;51.350;12.410;2023-04-19T03:17:56;12.43;;;6.88;;
50717;SDS011;60557;51.350;12.410;2023-04-19T03:20:22;10.35;;;7.00;;
50717;SDS011;60557;51.350;12.410;2023-04-19T03:22:48;11.45;;;7.40;;
50717;SDS011;60557;51.350;12.410;2023-04-19T03:25:15;11.50;;;5.78;;
50717;SDS011;60557;51.350;12.410;2023-04-19T03:27:41;10.93;;;5.95;;
50717;SDS011;60557;51.350;12.410;2023-04-19T03:30:09;10.88;;;6.78;;
50717;SDS011;60557;51.350;12.410;2023-04-19T03:32:36;9.95;;;5.78;;
50717;SDS011;60557;51.350;12.410;2023-04-19T03:35:02;10.48;;;5.60;;
50717;SDS011;60557;51.350;12.410;2023-04-19T03:37:28;9.60;;;5.93;;
50717;SDS011;60557;51.350;12.410;2023-04-19T03:39:54;10.93;;;5.15;;
50717;SDS011;60557;51.350;12.410;2023-04-19T03:42:20;11.90;;;5.95;;
50717;SDS011;60557;51.350;12.410;2023-04-19T03:44:49;8.25;;;5.53;;
50717;SDS011;60557;51.350;12.410;2023-04-19T03:47:15;10.07;;;5.18;;
50717;SDS011;60557;51.350;12.410;2023-04-19T03:49:41;7.82;;;5.07;;
50717;SDS011;60557;51.350;12.410;2023-04-19T03:52:09;6.88;;;4.32;;
50717;SDS011;60557;51.350;12.410;2023-04-19T03:54:35;8.93;;;5.25;;
50717;SDS011;60557;51.350;12.410;2023-04-19T03:57:04;9.93;;;4.47;;
50717;SDS011;60557;51.350;12.410;2023-04-19T03:59:30;10.35;;;4.05;;
50717;SDS011;60557;51.350;12.410;2023-04-19T04:01:56;13.73;;;3.80;;
50717;SDS011;60557;51.350;12.410;2023-04-19T04:04:22;9.45;;;3.53;;
50717;SDS011;60557;51.350;12.410;2023-04-19T04:06:48;7.53;;;4.10;;
50717;SDS011;60557;51.350;12.410;2023-04-19T04:09:15;9.60;;;4.03;;
50717;SDS011;60557;51.350;12.410;2023-04-19T04:11:41;8.05;;;3.85;;
50717;SDS011;60557;51.350;12.410;2023-04-19T04:14:09;6.63;;;3.17;;
50717;SDS011;60557;51.350;12.410;2023-04-19T04:16:35;13.15;;;4.32;;
50717;SDS011;60557;51.350;12.410;2023-04-19T04:19:01;8.55;;;3.22;;
50717;SDS011;60557;51.350;12.410;2023-04-19T04:21:27;7.38;;;3.58;;
50717;SDS011;60557;51.350;12.410;2023-04-19T04:23:54;5.45;;;3.65;;
50717;SDS011;60557;51.350;12.410;2023-04-19T04:26:25;7.60;;;3.53;;
50717;SDS011;60557;51.350;12.410;2023-04-19T04:28:54;8.45;;;4.20;;
50717;SDS011;60557;51.350;12.410;2023-04-19T04:31:21;7.07;;;4.18;;
50717;SDS011;60557;51.350;12.410;2023-04-19T04:33:47;8.25;;;3.83;;
50717;SDS011;60557;51.350;12.410;2023-04-19T04:36:13;8.07;;;3.50;;
50717;SDS011;60557;51.350;12.410;2023-04-19T04:38:39;7.25;;;4.43;;
50717;SDS011;60557;51.350;12.410;2023-04-19T04:41:05;8.77;;;4.45;;
50717;SDS011;60557;51.350;12.410;2023-04-19T04:43:31;8.93;;;3.17;;
50717;SDS011;60557;51.350;12.410;2023-04-19T04:45:59;6.28;;;3.35;;
50717;SDS011;60557;51.350;12.410;2023-04-19T04:48:25;6.28;;;2.90;;
50717;SDS011;60557;51.350;12.410;2023-04-19T04:50:51;7.88;;;3.00;;
50717;SDS011;60557;51.350;12.410;2023-04-19T04:53:17;11.00;;;3.50;;
50717;SDS011;60557;51.350;12.410;2023-04-19T04:55:44;6.38;;;2.65;;
50717;SDS011;60557;51.350;12.410;2023-04-19T04:58:10;4.82;;;3.38;;
50717;SDS011;60557;51.350;12.410;2023-04-19T05:00:36;4.97;;;2.30;;
50717;SDS011;60557;51.350;12.410;2023-04-19T05:03:02;5.03;;;2.38;;
50717;SDS011;60557;51.350;12.410;2023-04-19T05:05:31;6.03;;;2.85;;
50717;SDS011;60557;51.350;12.410;2023-04-19T05:07:57;5.25;;;2.35;;
50717;SDS011;60557;51.350;12.410;2023-04-19T05:10:23;6.15;;;2.60;;
50717;SDS011;60557;51.350;12.410;2023-04-19T05:12:49;5.00;;;2.38;;
50717;SDS011;60557;51.350;12.410;2023-04-19T05:15:17;7.35;;;3.30;;
50717;SDS011;60557;51.350;12.410;2023-04-19T05:17:43;4.07;;;2.25;;
50717;SDS011;60557;51.350;12.410;2023-04-19T05:20:10;3.88;;;1.65;;
50717;SDS011;60557;51.350;12.410;2023-04-19T05:22:36;5.65;;;1.77;;
50717;SDS011;60557;51.350;12.410;2023-04-19T05:25:02;4.40;;;1.83;;
50717;SDS011;60557;51.350;12.410;2023-04-19T05:27:31;4.22;;;2.20;;
50717;SDS011;60557;51.350;12.410;2023-04-19T05:29:59;3.55;;;1.67;;
50717;SDS011;60557;51.350;12.410;2023-04-19T05:32:25;6.45;;;3.38;;
50717;SDS011;60557;51.350;12.410;2023-04-19T05:34:56;3.53;;;1.80;;
50717;SDS011;60557;51.350;12.410;2023-04-19T05:37:22;3.00;;;1.60;;
50717;SDS011;60557;51.350;12.410;2023-04-19T05:39:48;6.05;;;1.77;;
50717;SDS011;60557;51.350;12.410;2023-04-19T05:42:14;5.53;;;1.75;;
50717;SDS011;60557;51.350;12.410;2023-04-19T05:44:40;7.90;;;2.17;;
50717;SDS011;60557;51.350;12.410;2023-04-19T05:47:06;7.15;;;1.85;;
50717;SDS011;60557;51.350;12.410;2023-04-19T05:49:32;4.07;;;1.90;;
50717;SDS011;60557;51.350;12.410;2023-04-19T05:51:59;9.10;;;1.48;;
50717;SDS011;60557;51.350;12.410;2023-04-19T05:54:25;5.40;;;1.92;;
50717;SDS011;60557;51.350;12.410;2023-04-19T05:56:52;3.83;;;1.73;;
50717;SDS011;60557;51.350;12.410;2023-04-19T05:59:18;2.80;;;1.38;;
50717;SDS011;60557;51.350;12.410;2023-04-19T06:01:44;3.90;;;1.33;;
50717;SDS011;60557;51.350;12.410;2023-04-19T06:04:10;6.10;;;1.88;;
50717;SDS011;60557;51.350;12.410;2023-04-19T06:06:41;4.57;;;1.88;;
50717;SDS011;60557;51.350;12.410;2023-04-19T06:09:08;3.53;;;1.73;;
50717;SDS011;60557;51.350;12.410;2023-04-19T06:11:34;3.70;;;1.83;;
50717;SDS011;60557;51.350;12.410;2023-04-19T06:14:00;6.85;;;1.67;;
50717;SDS011;60557;51.350;12.410;2023-04-19T06:16:28;2.70;;;1.80;;
50717;SDS011;60557;51.350;12.410;2023-04-19T06:18:54;4.15;;;1.90;;
50717;SDS011;60557;51.350;12.410;2023-04-19T06:21:21;5.00;;;1.90;;
50717;SDS011;60557;51.350;12.410;2023-04-19T06:23:50;3.20;;;1.73;;
50717;SDS011;60557;51.350;12.410;2023-04-19T06:26:16;8.20;;;1.80;;
50717;SDS011;60557;51.350;12.410;2023-04-19T06:28:42;3.35;;;1.67;;
50717;SDS011;60557;51.350;12.410;2023-04-19T06:31:08;4.60;;;2.08;;
50717;SDS011;60557;51.350;12.410;2023-04-19T06:33:34;4.68;;;1.85;;
50717;SDS011;60557;51.350;12.410;2023-04-19T06:36:03;2.67;;;1.52;;
50717;SDS011;60557;51.350;12.410;2023-04-19T06:38:29;6.85;;;1.60;;
50717;SDS011;60557;51.350;12.410;2023-04-19T06:40:55;3.67;;;1.85;;
50717;SDS011;60557;51.350;12.410;2023-04-19T06:43:24;3.95;;;1.92;;
50717;SDS011;60557;51.350;12.410;2023-04-19T06:45:56;5.15;;;2.13;;
50717;SDS011;60557;51.350;12.410;2023-04-19T06:48:22;2.80;;;1.45;;
50717;SDS011;60557;51.350;12.410;2023-04-19T06:50:48;6.47;;;2.05;;
50717;SDS011;60557;51.350;12.410;2023-04-19T06:53:14;6.13;;;2.20;;
50717;SDS011;60557;51.350;12.410;2023-04-19T06:55:40;3.17;;;1.80;;
50717;SDS011;60557;51.350;12.410;2023-04-19T06:58:06;8.00;;;2.25;;
50717;SDS011;60557;51.350;12.410;2023-04-19T07:00:35;2.05;;;1.23;;
50717;SDS011;60557;51.350;12.410;2023-04-19T07:03:01;6.18;;;1.85;;
50717;SDS011;60557;51.350;12.410;2023-04-19T07:05:28;5.88;;;1.88;;
50717;SDS011;60557;51.350;12.410;2023-04-19T07:07:55;5.07;;;1.80;;
50717;SDS011;60557;51.350;12.410;2023-04-19T07:10:22;5.55;;;1.60;;
50717;SDS011;60557;51.350;12.410;2023-04-19T07:12:51;7.35;;;2.00;;
50717;SDS011;60557;51.350;12.410;2023-04-19T07:15:17;6.53;;;1.80;;
50717;SDS011;60557;51.350;12.410;2023-04-19T07:17:44;3.88;;;1.33;;
50717;SDS011;60557;51.350;12.410;2023-04-19T07:20:12;3.78;;;1.65;;
50717;SDS011;60557;51.350;12.410;2023-04-19T07:22:40;5.95;;;1.70;;
50717;SDS011;60557;51.350;12.410;2023-04-19T07:25:06;3.22;;;1.70;;
50717;SDS011;60557;51.350;12.410;2023-04-19T07:27:33;3.03;;;1.33;;
50717;SDS011;60557;51.350;12.410;2023-04-19T07:29:59;5.88;;;1.63;;
50717;SDS011;60557;51.350;12.410;2023-04-19T07:32:25;4.22;;;1.70;;
50717;SDS011;60557;51.350;12.410;2023-04-19T07:34:53;1.73;;;1.00;;
50717;SDS011;60557;51.350;12.410;2023-04-19T07:37:22;4.35;;;1.77;;
50717;SDS011;60557;51.350;12.410;2023-04-19T07:39:50;5.10;;;1.85;;
50717;SDS011;60557;51.350;12.410;2023-04-19T07:42:16;7.53;;;1.65;;
50717;SDS011;60557;51.350;12.410;2023-04-19T07:44:42;2.63;;;1.63;;
50717;SDS011;60557;51.350;12.410;2023-04-19T07:47:08;5.68;;;1.58;;
50717;SDS011;60557;51.350;12.410;2023-04-19T07:49:35;3.83;;;1.88;;
50717;SDS011;60557;51.350;12.410;2023-04-19T07:52:01;3.58;;;1.80;;
50717;SDS011;60557;51.350;12.410;2023-04-19T07:54:27;3.35;;;1.55;;
50717;SDS011;60557;51.350;12.410;2023-04-19T07:56:54;4.72;;;1.50;;
50717;SDS011;60557;51.350;12.410;2023-04-19T07:59:21;2.33;;;1.40;;
50717;SDS011;60557;51.350;12.410;2023-04-19T08:01:48;5.53;;;1.65;;
50717;SDS011;60557;51.350;12.410;2023-04-19T08:04:14;3.60;;;1.50;;
50717;SDS011;60557;51.350;12.410;2023-04-19T08:06:43;3.63;;;1.83;;
50717;SDS011;60557;51.350;12.410;2023-04-19T08:09:12;4.40;;;1.58;;
50717;SDS011;60557;51.350;12.410;2023-04-19T08:11:38;3.35;;;1.83;;
50717;SDS011;60557;51.350;12.410;2023-04-19T08:14:04;5.68;;;1.50;;
50717;SDS011;60557;51.350;12.410;2023-04-19T08:16:30;8.50;;;2.47;;
50717;SDS011;60557;51.350;12.410;2023-04-19T08:18:56;4.90;;;1.80;;
50717;SDS011;60557;51.350;12.410;2023-04-19T08:21:22;3.72;;;1.50;;
50717;SDS011;60557;51.350;12.410;2023-04-19T08:23:48;5.88;;;1.67;;
50717;SDS011;60557;51.350;12.410;2023-04-19T08:26:15;5.32;;;1.45;;
50717;SDS011;60557;51.350;12.410;2023-04-19T08:28:46;5.20;;;1.65;;
50717;SDS011;60557;51.350;12.410;2023-04-19T08:31:16;2.97;;;1.67;;
50717;SDS011;60557;51.350;12.410;2023-04-19T08:33:47;3.08;;;1.75;;
50717;SDS011;60557;51.350;12.410;2023-04-19T08:36:13;6.07;;;1.73;;
50717;SDS011;60557;51.350;12.410;2023-04-19T08:38:41;4.00;;;1.73;;
50717;SDS011;60557;51.350;12.410;2023-04-19T08:41:09;5.65;;;2.00;;
50717;SDS011;60557;51.350;12.410;2023-04-19T08:43:38;5.70;;;2.28;;
50717;SDS011;60557;51.350;12.410;2023-04-19T08:46:07;3.90;;;2.05;;
50717;SDS011;60557;51.350;12.410;2023-04-19T08:48:36;2.80;;;1.70;;
50717;SDS011;60557;51.350;12.410;2023-04-19T08:51:02;5.97;;;1.63;;
50717;SDS011;60557;51.350;12.410;2023-04-19T08:53:32;9.65;;;1.70;;
50717;SDS011;60557;51.350;12.410;2023-04-19T08:55:58;7.90;;;1.50;;
50717;SDS011;60557;51.350;12.410;2023-04-19T08:58:26;6.28;;;1.70;;
50717;SDS011;60557;51.350;12.410;2023-04-19T09:00:54;5.88;;;1.85;;
50717;SDS011;60557;51.350;12.410;2023-04-19T09:03:25;4.65;;;1.52;;
50717;SDS011;60557;51.350;12.410;2023-04-19T09:05:51;4.75;;;1.70;;
50717;SDS011;60557;51.350;12.410;2023-04-19T09:08:25;7.93;;;1.55;;
50717;SDS011;60557;51.350;12.410;2023-04-19T09:10:58;6.68;;;2.00;;
50717;SDS011;60557;51.350;12.410;2023-04-19T09:13:25;5.35;;;1.77;;
50717;SDS011;60557;51.350;12.410;2023-04-19T09:15:52;5.70;;;1.90;;
50717;SDS011;60557;51.350;12.410;2023-04-19T09:18:21;3.40;;;1.58;;
50717;SDS011;60557;51.350;12.410;2023-04-19T09:20:50;7.03;;;1.88;;
50717;SDS011;60557;51.350;12.410;2023-04-19T09:23:21;4.28;;;1.83;;
50717;SDS011;60557;51.350;12.410;2023-04-19T09:28:18;4.45;;;1.50;;
50717;SDS011;60557;51.350;12.410;2023-04-19T09:30:45;4.82;;;1.73;;
50717;SDS011;60557;51.350;12.410;2023-04-19T09:33:11;5.60;;;2.22;;
50717;SDS011;60557;51.350;12.410;2023-04-19T09:38:07;8.73;;;1.73;;
50717;SDS011;60557;51.350;12.410;2023-04-19T09:40:34;2.88;;;1.75;;
50717;SDS011;60557;51.350;12.410;2023-04-19T09:43:00;5.43;;;1.77;;
50717;SDS011;60557;51.350;12.410;2023-04-19T09:45:38;4.32;;;1.40;;
50717;SDS011;60557;51.350;12.410;2023-04-19T09:48:05;6.32;;;1.55;;
50717;SDS011;60557;51.350;12.410;2023-04-19T09:50:31;6.82;;;1.67;;
50717;SDS011;60557;51.350;12.410;2023-04-19T09:52:58;5.90;;;1.55;;
50717;SDS011;60557;51.350;12.410;2023-04-19T09:55:25;4.78;;;1.45;;
50717;SDS011;60557;51.350;12.410;2023-04-19T09:57:51;5.00;;;1.73;;
50717;SDS011;60557;51.350;12.410;2023-04-19T10:00:18;5.65;;;2.85;;
50717;SDS011;60557;51.350;12.410;2023-04-19T10:02:46;8.90;;;2.38;;
50717;SDS011;60557;51.350;12.410;2023-04-19T10:05:21;5.50;;;2.15;;
50717;SDS011;60557;51.350;12.410;2023-04-19T10:07:48;4.47;;;2.08;;
50717;SDS011;60557;51.350;12.410;2023-04-19T10:10:17;3.63;;;1.55;;
50717;SDS011;60557;51.350;12.410;2023-04-19T10:12:48;2.57;;;1.47;;
50717;SDS011;60557;51.350;12.410;2023-04-19T10:15:16;5.35;;;1.50;;
50717;SDS011;60557;51.350;12.410;2023-04-19T10:17:43;6.72;;;2.65;;
50717;SDS011;60557;51.350;12.410;2023-04-19T10:20:09;3.45;;;1.65;;
50717;SDS011;60557;51.350;12.410;2023-04-19T10:22:38;8.68;;;2.08;;
50717;SDS011;60557;51.350;12.410;2023-04-19T10:25:14;4.95;;;1.90;;
50717;SDS011;60557;51.350;12.410;2023-04-19T10:27:42;6.70;;;1.67;;
50717;SDS011;60557;51.350;12.410;2023-04-19T10:30:16;8.35;;;1.88;;
50717;SDS011;60557;51.350;12.410;2023-04-19T10:32:43;5.68;;;1.98;;
50717;SDS011;60557;51.350;12.410;2023-04-19T10:35:44;5.47;;;1.70;;
50717;SDS011;60557;51.350;12.410;2023-04-19T10:38:04;7.28;;;2.20;;
50717;SDS011;60557;51.350;12.410;2023-04-19T10:43:31;4.22;;;2.00;;
50717;SDS011;60557;51.350;12.410;2023-04-19T10:46:08;5.47;;;2.10;;
50717;SDS011;60557;51.350;12.410;2023-04-19T10:48:37;4.90;;;1.85;;
50717;SDS011;60557;51.350;12.410;2023-04-19T10:53:42;3.15;;;1.50;;
50717;SDS011;60557;51.350;12.410;2023-04-19T10:56:08;3.70;;;1.80;;
50717;SDS011;60557;51.350;12.410;2023-04-19T11:01:30;6.50;;;1.52;;
50717;SDS011;60557;51.350;12.410;2023-04-19T11:03:57;9.15;;;2.13;;
50717;SDS011;60557;51.350;12.410;2023-04-19T11:06:23;2.67;;;1.75;;
50717;SDS011;60557;51.350;12.410;2023-04-19T11:08:52;3.40;;;2.15;;
50717;SDS011;60557;51.350;12.410;2023-04-19T11:11:18;4.38;;;1.63;;
50717;SDS011;60557;51.350;12.410;2023-04-19T11:13:48;5.35;;;1.90;;
50717;SDS011;60557;51.350;12.410;2023-04-19T11:16:14;5.00;;;2.13;;
50717;SDS011;60557;51.350;12.410;2023-04-19T11:18:43;6.50;;;2.50;;
50717;SDS011;60557;51.350;12.410;2023-04-19T11:21:12;5.70;;;1.85;;
50717;SDS011;60557;51.350;12.410;2023-04-19T11:23:41;6.17;;;1.90;;
50717;SDS011;60557;51.350;12.410;2023-04-19T11:26:09;9.20;;;2.00;;
50717;SDS011;60557;51.350;12.410;2023-04-19T11:28:35;3.70;;;1.77;;
50717;SDS011;60557;51.350;12.410;2023-04-19T11:31:02;3.92;;;1.90;;
50717;SDS011;60557;51.350;12.410;2023-04-19T11:33:34;3.53;;;2.20;;
50717;SDS011;60557;51.350;12.410;2023-04-19T11:36:00;4.43;;;1.90;;
50717;SDS011;60557;51.350;12.410;2023-04-19T11:38:27;5.95;;;1.88;;
50717;SDS011;60557;51.350;12.410;2023-04-19T11:41:02;4.93;;;1.85;;
50717;SDS011;60557;51.350;12.410;2023-04-19T11:43:33;2.97;;;1.58;;
50717;SDS011;60557;51.350;12.410;2023-04-19T11:46:06;5.38;;;2.38;;
50717;SDS011;60557;51.350;12.410;2023-04-19T11:48:33;4.60;;;1.92;;
50717;SDS011;60557;51.350;12.410;2023-04-19T11:51:00;7.43;;;2.95;;
50717;SDS011;60557;51.350;12.410;2023-04-19T11:53:26;3.22;;;1.60;;
50717;SDS011;60557;51.350;12.410;2023-04-19T11:55:54;4.07;;;2.03;;
50717;SDS011;60557;51.350;12.410;2023-04-19T11:58:25;5.22;;;2.05;;
50717;SDS011;60557;51.350;12.410;2023-04-19T12:01:01;7.57;;;1.92;;
50717;SDS011;60557;51.350;12.410;2023-04-19T12:03:28;6.45;;;2.05;;
50717;SDS011;60557;51.350;12.410;2023-04-19T12:05:55;4.93;;;2.45;;
50717;SDS011;60557;51.350;12.410;2023-04-19T12:08:37;4.03;;;1.85;;
50717;SDS011;60557;51.350;12.410;2023-04-19T12:11:09;3.30;;;2.28;;
50717;SDS011;60557;51.350;12.410;2023-04-19T12:13:37;6.88;;;2.20;;
50717;SDS011;60557;51.350;12.410;2023-04-19T12:16:05;4.57;;;1.48;;
50717;SDS011;60557;51.350;12.410;2023-04-19T12:18:43;5.85;;;1.88;;
50717;SDS011;60557;51.350;12.410;2023-04-19T12:21:10;14.30;;;2.00;;
50717;SDS011;60557;51.350;12.410;2023-04-19T12:23:37;7.75;;;2.05;;
50717;SDS011;60557;51.350;12.410;2023-04-19T12:26:03;5.82;;;2.67;;
50717;SDS011;60557;51.350;12.410;2023-04-19T12:28:29;6.18;;;2.35;;
50717;SDS011;60557;51.350;12.410;2023-04-19T12:30:58;7.28;;;2.45;;
50717;SDS011;60557;51.350;12.410;2023-04-19T12:33:24;10.43;;;2.30;;
50717;SDS011;60557;51.350;12.410;2023-04-19T12:35:50;4.43;;;1.95;;
50717;SDS011;60557;51.350;12.410;2023-04-19T12:38:18;3.35;;;2.13;;
50717;SDS011;60557;51.350;12.410;2023-04-19T12:40:45;8.80;;;2.58;;
50717;SDS011;60557;51.350;12.410;2023-04-19T12:43:14;7.72;;;2.47;;
50717;SDS011;60557;51.350;12.410;2023-04-19T12:45:40;7.65;;;2.63;;
50717;SDS011;60557;51.350;12.410;2023-04-19T12:48:09;6.20;;;2.08;;
50717;SDS011;60557;51.350;12.410;2023-04-19T12:50:36;4.88;;;1.95;;
50717;SDS011;60557;51.350;12.410;2023-04-19T12:53:04;4.80;;;2.10;;
50717;SDS011;60557;51.350;12.410;2023-04-19T12:55:31;5.85;;;1.73;;
50717;SDS011;60557;51.350;12.410;2023-04-19T12:57:57;9.13;;;2.15;;
50717;SDS011;60557;51.350;12.410;2023-04-19T13:00:23;5.80;;;2.45;;
50717;SDS011;60557;51.350;12.410;2023-04-19T13:02:51;5.32;;;1.90;;
50717;SDS011;60557;51.350;12.410;2023-04-19T13:05:18;5.93;;;1.70;;
50717;SDS011;60557;51.350;12.410;2023-04-19T13:07:46;5.70;;;1.88;;
50717;SDS011;60557;51.350;12.410;2023-04-19T13:10:15;4.93;;;2.15;;
50717;SDS011;60557;51.350;12.410;2023-04-19T13:12:41;4.35;;;1.55;;
50717;SDS011;60557;51.350;12.410;2023-04-19T13:15:09;3.72;;;1.65;;
50717;SDS011;60557;51.350;12.410;2023-04-19T13:17:35;5.85;;;3.05;;
50717;SDS011;60557;51.350;12.410;2023-04-19T13:20:02;6.57;;;1.90;;
50717;SDS011;60557;51.350;12.410;2023-04-19T13:22:30;6.68;;;1.95;;
50717;SDS011;60557;51.350;12.410;2023-04-19T13:24:58;6.55;;;3.03;;
50717;SDS011;60557;51.350;12.410;2023-04-19T13:27:24;5.53;;;1.95;;
50717;SDS011;60557;51.350;12.410;2023-04-19T13:29:52;4.22;;;2.05;;
50717;SDS011;60557;51.350;12.410;2023-04-19T13:32:18;43.30;;;2.63;;
50717;SDS011;60557;51.350;12.410;2023-04-19T13:34:44;5.18;;;1.90;;
50717;SDS011;60557;51.350;12.410;2023-04-19T13:37:11;5.32;;;1.42;;
50717;SDS011;60557;51.350;12.410;2023-04-19T13:39:37;3.30;;;1.50;;
50717;SDS011;60557;51.350;12.410;2023-04-19T13:42:03;9.05;;;1.90;;
50717;SDS011;60557;51.350;12.410;2023-04-19T13:44:29;5.38;;;1.98;;
50717;SDS011;60557;51.350;12.410;2023-04-19T13:46:58;5.07;;;1.98;;
50717;SDS011;60557;51.350;12.410;2023-04-19T13:49:25;3.38;;;1.42;;
50717;SDS011;60557;51.350;12.410;2023-04-19T13:51:51;7.13;;;1.88;;
50717;SDS011;60557;51.350;12.410;2023-04-19T13:54:19;4.50;;;1.50;;
50717;SDS011;60557;51.350;12.410;2023-04-19T13:56:45;4.00;;;1.80;;
50717;SDS011;60557;51.350;12.410;2023-04-19T13:59:12;5.72;;;3.08;;
50717;SDS011;60557;51.350;12.410;2023-04-19T14:01:38;5.45;;;2.17;;
50717;SDS011;60557;51.350;12.410;2023-04-19T14:04:09;5.03;;;2.28;;
50717;SDS011;60557;51.350;12.410;2023-04-19T14:06:35;5.30;;;2.15;;
50717;SDS011;60557;51.350;12.410;2023-04-19T14:09:01;6.60;;;2.00;;
50717;SDS011;60557;51.350;12.410;2023-04-19T14:11:29;5.80;;;1.80;;
50717;SDS011;60557;51.350;12.410;2023-04-19T14:13:55;6.55;;;1.77;;
50717;SDS011;60557;51.350;12.410;2023-04-19T14:16:21;5.57;;;2.30;;
50717;SDS011;60557;51.350;12.410;2023-04-19T14:18:49;8.00;;;2.72;;
50717;SDS011;60557;51.350;12.410;2023-04-19T14:21:18;8.02;;;1.98;;
50717;SDS011;60557;51.350;12.410;2023-04-19T14:23:44;9.25;;;2.10;;
50717;SDS011;60557;51.350;12.410;2023-04-19T14:26:10;5.07;;;2.20;;
50717;SDS011;60557;51.350;12.410;2023-04-19T14:28:37;5.05;;;1.83;;
50717;SDS011;60557;51.350;12.410;2023-04-19T14:31:05;5.20;;;2.10;;
50717;SDS011;60557;51.350;12.410;2023-04-19T14:33:36;7.90;;;2.13;;
50717;SDS011;60557;51.350;12.410;2023-04-19T14:36:02;7.45;;;1.95;;
50717;SDS011;60557;51.350;12.410;2023-04-19T14:38:31;6.20;;;2.13;;
50717;SDS011;60557;51.350;12.410;2023-04-19T14:40:59;4.30;;;1.73;;
50717;SDS011;60557;51.350;12.410;2023-04-19T14:43:25;5.78;;;1.70;;
50717;SDS011;60557;51.350;12.410;2023-04-19T14:45:54;6.03;;;2.28;;
50717;SDS011;60557;51.350;12.410;2023-04-19T14:48:20;7.43;;;1.92;;